Time;durP1;ratioP1;P1;durP2;ratioP2;P2;SDS_P1;SDS_P2;PMS_P1;PMS_P2;Temp;Humidity;BMP_temperature;BMP_pressure;BME280_temperature;BME280_humidity;BME280_pressure;Samples;Min_cycle;Max_cycle;Signal;HPM_P1;HPM_P2
2023/04/09 00:01:06;;;;;;;95.72;44.28;;;;;;;;;;5074814;28;20177;-86
2023/04/09 00:03:32;;;;;;;93.13;43.97;;;;;;;;;;5094635;28;20040;-87
2023/04/09 00:05:57;;;;;;;93.95;44.35;;;;;;;;;;5076803;28;20170;-87
2023/04/09 00:08:23;;;;;;;97.20;46.28;;;;;;;;;;5076691;28;20055;-87
2023/04/09 00:10:49;;;;;;;102.55;47.78;;;;;;;;;;5076274;28;20036;-87
2023/04/09 00:13:15;;;;;;;103.55;47.97;;;;;;;;;;5098703;28;20020;-87
2023/04/09 00:15:40;;;;;;;96.55;47.90;;;;;;;;;;5099718;28;20115;-88
2023/04/09 00:18:06;;;;;;;100.70;47.80;;;;;;;;;;5076879;28;20087;-87
2023/04/09 00:20:31;;;;;;;92.07;44.38;;;;;;;;;;5080702;28;20047;-87
2023/04/09 00:22:57;;;;;;;89.72;44.00;;;;;;;;;;5094627;28;20031;-87
2023/04/09 00:25:23;;;;;;;86.53;42.00;;;;;;;;;;5106821;28;20024;-87
2023/04/09 00:27:49;;;;;;;86.38;41.95;;;;;;;;;;5114843;28;20289;-88
2023/04/09 00:30:14;;;;;;;87.35;43.40;;;;;;;;;;5114617;28;20024;-88
2023/04/09 00:32:40;;;;;;;94.30;43.38;;;;;;;;;;5096491;28;20050;-88
2023/04/09 00:35:05;;;;;;;83.75;40.53;;;;;;;;;;5130956;28;20035;-86
2023/04/09 00:37:31;;;;;;;78.05;40.60;;;;;;;;;;5102118;28;20027;-86
2023/04/09 00:39:56;;;;;;;84.13;41.28;;;;;;;;;;5115000;28;20020;-87
2023/04/09 00:42:22;;;;;;;82.82;43.13;;;;;;;;;;5101810;28;20035;-87
2023/04/09 00:44:48;;;;;;;78.07;41.53;;;;;;;;;;5105090;28;20472;-87
2023/04/09 00:47:13;;;;;;;78.88;40.95;;;;;;;;;;5105149;28;20069;-87
2023/04/09 00:49:38;;;;;;;76.50;39.55;;;;;;;;;;5100734;28;20035;-88
2023/04/09 00:52:04;;;;;;;78.60;39.38;;;;;;;;;;5114837;28;20103;-88
2023/04/09 00:54:29;;;;;;;74.57;37.17;;;;;;;;;;5082844;28;20058;-85
2023/04/09 00:56:55;;;;;;;71.28;37.50;;;;;;;;;;5108899;28;20067;-86
2023/04/09 00:59:21;;;;;;;76.75;38.50;;;;;;;;;;5097396;28;20341;-87
2023/04/09 01:01:46;;;;;;;75.32;39.55;;;;;;;;;;5092702;28;20026;-86
2023/04/09 01:04:11;;;;;;;76.78;38.70;;;;;;;;;;5073903;28;20299;-87
2023/04/09 01:06:43;;;;;;;76.22;38.88;;;;;;;;;;5073864;28;20115;-87
2023/04/09 01:09:27;;;;;;;69.63;37.15;;;;;;;;;;5073580;28;20031;-87
2023/04/09 01:12:05;;;;;;;74.50;37.33;;;;;;;;;;5078204;28;20137;-88
2023/04/09 01:14:57;;;;;;;73.80;37.13;;;;;;;;;;5063272;28;20100;-86
2023/04/09 01:17:46;;;;;;;71.50;36.13;;;;;;;;;;5074866;28;20071;-85
2023/04/09 01:20:15;;;;;;;70.97;35.70;;;;;;;;;;5056870;28;20044;-87
2023/04/09 01:23:08;;;;;;;68.82;37.20;;;;;;;;;;5072905;28;20029;-87
2023/04/09 01:25:42;;;;;;;73.68;39.05;;;;;;;;;;5099211;28;20122;-88
2023/04/09 01:28:12;;;;;;;80.53;39.97;;;;;;;;;;5097899;28;20027;-87
2023/04/09 01:30:38;;;;;;;78.75;38.90;;;;;;;;;;5116951;28;20115;-86
2023/04/09 01:33:04;;;;;;;74.70;37.90;;;;;;;;;;5100533;28;20012;-87
2023/04/09 01:35:29;;;;;;;71.03;36.40;;;;;;;;;;5118281;28;20418;-88
2023/04/09 01:37:54;;;;;;;71.88;36.88;;;;;;;;;;5116494;28;20030;-88
2023/04/09 01:40:20;;;;;;;74.68;37.28;;;;;;;;;;5114968;28;20041;-87
2023/04/09 01:42:46;;;;;;;72.70;37.88;;;;;;;;;;5123931;28;20026;-86
2023/04/09 01:45:12;;;;;;;73.82;37.88;;;;;;;;;;5131952;28;20023;-89
2023/04/09 01:47:38;;;;;;;71.10;37.75;;;;;;;;;;5118356;28;20032;-88
2023/04/09 01:50:04;;;;;;;72.35;37.25;;;;;;;;;;5100000;28;20114;-88
2023/04/09 01:52:29;;;;;;;72.07;36.15;;;;;;;;;;5118011;28;20438;-88
2023/04/09 01:54:55;;;;;;;76.88;37.03;;;;;;;;;;5083167;28;20442;-88
2023/04/09 01:57:21;;;;;;;71.28;36.85;;;;;;;;;;5117881;28;20027;-87
2023/04/09 01:59:46;;;;;;;69.00;36.13;;;;;;;;;;5132227;28;20130;-87
2023/04/09 02:02:17;;;;;;;74.05;37.83;;;;;;;;;;5118218;28;20095;-86
2023/04/09 02:04:46;;;;;;;79.10;40.05;;;;;;;;;;5067305;28;20078;-88
2023/04/09 02:07:23;;;;;;;77.60;39.45;;;;;;;;;;5044062;28;20111;-87
2023/04/09 02:09:48;;;;;;;75.18;39.08;;;;;;;;;;5060450;28;20035;-88
2023/04/09 02:12:16;;;;;;;82.43;40.58;;;;;;;;;;5067008;28;20040;-86
2023/04/09 02:14:41;;;;;;;76.80;38.63;;;;;;;;;;5055714;28;20033;-85
2023/04/09 02:17:07;;;;;;;78.35;39.42;;;;;;;;;;5070237;28;20054;-85
2023/04/09 02:19:45;;;;;;;81.45;40.58;;;;;;;;;;5071283;28;20052;-87
2023/04/09 02:22:11;;;;;;;77.85;39.15;;;;;;;;;;5080384;28;20051;-86
2023/04/09 02:24:36;;;;;;;74.80;38.88;;;;;;;;;;5090335;28;20362;-87
2023/04/09 02:27:02;;;;;;;75.80;38.70;;;;;;;;;;5098010;28;20132;-87
2023/04/09 02:29:28;;;;;;;78.47;38.70;;;;;;;;;;5098987;28;20023;-88
2023/04/09 02:31:54;;;;;;;80.72;39.30;;;;;;;;;;5099253;28;20028;-88
2023/04/09 02:34:19;;;;;;;77.93;40.13;;;;;;;;;;5117378;28;20076;-87
2023/04/09 02:36:45;;;;;;;81.85;41.28;;;;;;;;;;5117415;28;20118;-87
2023/04/09 02:39:11;;;;;;;89.00;43.08;;;;;;;;;;5120803;28;20015;-85
2023/04/09 02:41:37;;;;;;;83.40;41.85;;;;;;;;;;5126568;28;20040;-87
2023/04/09 02:44:02;;;;;;;81.97;41.72;;;;;;;;;;5117679;28;20108;-87
2023/04/09 02:46:28;;;;;;;89.90;41.72;;;;;;;;;;5117113;28;20036;-88
2023/04/09 02:48:53;;;;;;;85.43;42.55;;;;;;;;;;5117195;28;20031;-87
2023/04/09 02:51:19;;;;;;;81.05;41.10;;;;;;;;;;5116691;28;20028;-87
2023/04/09 02:53:44;;;;;;;75.97;40.53;;;;;;;;;;5116848;28;20050;-87
2023/04/09 02:56:10;;;;;;;78.28;40.67;;;;;;;;;;5116898;28;20039;-85
2023/04/09 02:58:35;;;;;;;81.75;40.28;;;;;;;;;;5116768;28;20514;-87
2023/04/09 03:01:01;;;;;;;79.40;39.50;;;;;;;;;;5129444;28;20126;-85
2023/04/09 03:03:26;;;;;;;81.70;40.88;;;;;;;;;;5093444;28;20039;-87
2023/04/09 03:05:51;;;;;;;85.90;42.58;;;;;;;;;;5109917;28;20070;-86
2023/04/09 03:08:19;;;;;;;84.63;43.47;;;;;;;;;;5106078;28;20027;-87
2023/04/09 03:10:44;;;;;;;85.18;41.33;;;;;;;;;;5115883;28;20039;-87
2023/04/09 03:13:10;;;;;;;80.30;41.75;;;;;;;;;;5098081;28;20058;-87
2023/04/09 03:15:35;;;;;;;85.35;42.28;;;;;;;;;;5115858;28;20024;-86
2023/04/09 03:18:00;;;;;;;89.43;42.75;;;;;;;;;;5116316;28;20023;-87
2023/04/09 03:20:26;;;;;;;80.95;41.45;;;;;;;;;;5125492;28;20107;-87
2023/04/09 03:22:51;;;;;;;82.40;41.95;;;;;;;;;;5135112;28;20039;-87
2023/04/09 03:25:19;;;;;;;90.70;43.42;;;;;;;;;;5087047;28;20134;-86
2023/04/09 03:27:45;;;;;;;90.00;44.78;;;;;;;;;;5077307;28;20036;-87
2023/04/09 03:30:11;;;;;;;88.38;44.63;;;;;;;;;;5095754;28;20422;-85
2023/04/09 03:32:36;;;;;;;96.13;45.75;;;;;;;;;;5095731;28;20126;-87
2023/04/09 03:35:02;;;;;;;99.18;47.90;;;;;;;;;;5095395;28;20045;-87
2023/04/09 03:37:27;;;;;;;99.88;50.55;;;;;;;;;;5095158;28;20076;-86
2023/04/09 03:39:52;;;;;;;100.72;53.58;;;;;;;;;;5095721;28;20039;-89
2023/04/09 03:42:18;;;;;;;100.22;52.28;;;;;;;;;;5086875;28;20050;-82
2023/04/09 03:44:43;;;;;;;102.63;51.78;;;;;;;;;;5107078;28;20387;-87
2023/04/09 03:47:09;;;;;;;101.03;48.75;;;;;;;;;;5095475;28;20024;-87
2023/04/09 03:49:34;;;;;;;100.18;47.97;;;;;;;;;;5095284;28;20040;-88
2023/04/09 03:52:00;;;;;;;95.85;46.78;;;;;;;;;;5077358;28;20377;-85
2023/04/09 03:54:28;;;;;;;96.78;46.88;;;;;;;;;;5095317;28;20334;-88
2023/04/09 03:56:55;;;;;;;97.10;45.53;;;;;;;;;;5060136;28;20027;-89
2023/04/09 03:59:20;;;;;;;95.05;47.20;;;;;;;;;;5095521;28;20122;-85
2023/04/09 04:01:46;;;;;;;107.20;48.47;;;;;;;;;;5095303;28;20123;-87
2023/04/09 04:04:12;;;;;;;102.38;49.97;;;;;;;;;;5094670;28;20054;-87
2023/04/09 04:06:37;;;;;;;107.03;52.67;;;;;;;;;;5080448;28;20039;-89
2023/04/09 04:09:03;;;;;;;108.00;50.92;;;;;;;;;;5092337;28;20416;-88
2023/04/09 04:11:28;;;;;;;107.65;50.45;;;;;;;;;;5094501;28;20032;-86
2023/04/09 04:13:54;;;;;;;107.22;51.97;;;;;;;;;;5094455;28;20474;-88
2023/04/09 04:16:20;;;;;;;102.80;50.00;;;;;;;;;;5076362;28;20118;-86
2023/04/09 04:18:45;;;;;;;113.70;53.95;;;;;;;;;;5094467;28;20528;-85
2023/04/09 04:21:12;;;;;;;113.18;55.40;;;;;;;;;;5094690;28;20036;-86
2023/04/09 04:23:38;;;;;;;118.13;55.88;;;;;;;;;;5080302;28;20044;-86
2023/04/09 04:26:09;;;;;;;121.85;55.55;;;;;;;;;;5126804;28;20038;-86
2023/04/09 04:28:35;;;;;;;119.00;58.78;;;;;;;;;;5097745;28;20043;-86
2023/04/09 04:31:01;;;;;;;128.43;60.85;;;;;;;;;;5096361;28;20358;-87
2023/04/09 04:33:26;;;;;;;117.25;59.10;;;;;;;;;;5096528;28;20031;-86
2023/04/09 04:35:52;;;;;;;122.07;58.30;;;;;;;;;;5096569;28;20036;-86
2023/04/09 04:38:17;;;;;;;117.45;59.40;;;;;;;;;;5114684;28;20051;-87
2023/04/09 04:40:43;;;;;;;120.03;57.80;;;;;;;;;;5097847;28;20035;-86
2023/04/09 04:43:08;;;;;;;120.13;59.15;;;;;;;;;;5122842;28;20070;-82
2023/04/09 04:45:34;;;;;;;120.13;55.45;;;;;;;;;;5131891;28;20027;-86
2023/04/09 04:47:59;;;;;;;119.90;55.92;;;;;;;;;;5117795;28;20024;-86
2023/04/09 04:50:24;;;;;;;111.35;53.65;;;;;;;;;;5097462;28;20023;-85
2023/04/09 04:52:50;;;;;;;122.10;57.22;;;;;;;;;;5115372;28;20019;-86
2023/04/09 04:55:15;;;;;;;124.85;57.92;;;;;;;;;;5096358;28;20100;-86
2023/04/09 04:57:41;;;;;;;124.35;57.97;;;;;;;;;;5096232;28;20456;-86
2023/04/09 05:00:07;;;;;;;125.95;56.10;;;;;;;;;;5114136;28;20475;-86
2023/04/09 05:02:32;;;;;;;118.28;56.83;;;;;;;;;;5114900;28;20027;-87
2023/04/09 05:04:58;;;;;;;124.78;56.15;;;;;;;;;;5097574;28;20122;-87
2023/04/09 05:07:23;;;;;;;117.65;55.33;;;;;;;;;;5090812;28;20024;-87
2023/04/09 05:09:49;;;;;;;119.25;54.78;;;;;;;;;;5108133;28;20024;-87
2023/04/09 05:12:16;;;;;;;114.47;53.67;;;;;;;;;;5094065;28;20028;-87
2023/04/09 05:14:42;;;;;;;125.82;56.60;;;;;;;;;;5093936;28;20027;-87
2023/04/09 05:17:08;;;;;;;120.05;54.58;;;;;;;;;;5094152;28;20032;-87
2023/04/09 05:19:33;;;;;;;124.00;57.70;;;;;;;;;;5093793;28;20130;-87
2023/04/09 05:21:58;;;;;;;123.03;55.22;;;;;;;;;;5093885;28;20123;-86
2023/04/09 05:24:24;;;;;;;117.82;54.58;;;;;;;;;;5062866;28;20045;-87
2023/04/09 05:26:49;;;;;;;117.25;53.75;;;;;;;;;;5100375;28;20348;-83
2023/04/09 05:29:16;;;;;;;118.75;53.88;;;;;;;;;;5102775;28;20040;-86
2023/04/09 05:31:41;;;;;;;123.60;54.03;;;;;;;;;;5096313;28;20449;-87
2023/04/09 05:34:07;;;;;;;118.95;54.78;;;;;;;;;;5115275;28;20035;-87
2023/04/09 05:36:32;;;;;;;126.18;56.83;;;;;;;;;;5114394;28;20035;-85
2023/04/09 05:38:58;;;;;;;128.65;55.80;;;;;;;;;;5114453;28;20019;-88
2023/04/09 05:41:23;;;;;;;123.28;53.75;;;;;;;;;;5096035;28;20023;-87
2023/04/09 05:43:49;;;;;;;125.28;53.85;;;;;;;;;;5096212;28;20643;-87
2023/04/09 05:46:15;;;;;;;119.95;54.92;;;;;;;;;;5113871;28;20748;-87
2023/04/09 05:48:40;;;;;;;124.75;54.78;;;;;;;;;;5127250;28;20011;-86
2023/04/09 05:51:06;;;;;;;126.25;55.40;;;;;;;;;;5115435;28;20073;-86
2023/04/09 05:53:31;;;;;;;119.18;54.05;;;;;;;;;;5114116;28;20027;-86
2023/04/09 05:55:57;;;;;;;123.80;56.33;;;;;;;;;;5113891;28;20058;-87
2023/04/09 05:58:22;;;;;;;130.43;55.90;;;;;;;;;;5114015;28;20114;-87
2023/04/09 06:00:50;;;;;;;131.70;56.90;;;;;;;;;;5115037;28;20092;-88
2023/04/09 06:03:15;;;;;;;125.35;56.92;;;;;;;;;;5116808;28;20120;-85
2023/04/09 06:05:41;;;;;;;128.20;56.15;;;;;;;;;;5119073;28;20449;-87
2023/04/09 06:08:06;;;;;;;129.25;57.05;;;;;;;;;;5118679;28;20334;-86
2023/04/09 06:10:32;;;;;;;130.25;59.08;;;;;;;;;;5133286;28;20467;-86
2023/04/09 06:12:57;;;;;;;130.90;59.03;;;;;;;;;;5099825;28;20460;-87
2023/04/09 06:15:22;;;;;;;131.02;58.65;;;;;;;;;;5096876;28;20020;-86
2023/04/09 06:17:48;;;;;;;137.55;59.70;;;;;;;;;;5097522;28;20020;-87
2023/04/09 06:20:13;;;;;;;144.75;62.35;;;;;;;;;;5062881;28;20389;-87
2023/04/09 06:22:39;;;;;;;136.93;60.35;;;;;;;;;;5079315;28;20118;-88
2023/04/09 06:25:05;;;;;;;123.95;55.38;;;;;;;;;;5105778;28;20031;-85
2023/04/09 06:27:30;;;;;;;134.15;59.05;;;;;;;;;;5116784;28;20030;-84
2023/04/09 06:29:56;;;;;;;142.25;60.28;;;;;;;;;;5127390;28;20034;-82
2023/04/09 06:32:21;;;;;;;133.80;60.90;;;;;;;;;;5127666;28;20038;-86
2023/04/09 06:34:47;;;;;;;134.38;59.92;;;;;;;;;;5117996;28;20047;-86
2023/04/09 06:37:12;;;;;;;137.52;58.95;;;;;;;;;;5118074;28;20035;-86
2023/04/09 06:39:39;;;;;;;136.75;59.20;;;;;;;;;;5123625;28;20050;-87
2023/04/09 06:42:04;;;;;;;129.20;57.35;;;;;;;;;;5116313;28;20024;-87
2023/04/09 06:44:32;;;;;;;133.00;59.00;;;;;;;;;;5108881;28;20084;-88
2023/04/09 06:46:57;;;;;;;141.70;60.15;;;;;;;;;;5134079;28;20053;-85
2023/04/09 06:49:23;;;;;;;137.85;58.20;;;;;;;;;;5104024;28;20031;-86
2023/04/09 06:51:48;;;;;;;127.63;57.42;;;;;;;;;;5132687;28;20040;-87
2023/04/09 06:54:14;;;;;;;131.55;58.05;;;;;;;;;;5099522;28;20072;-87
2023/04/09 06:56:39;;;;;;;131.93;57.53;;;;;;;;;;5117033;28;20039;-89
2023/04/09 06:59:05;;;;;;;134.13;56.53;;;;;;;;;;5099671;28;20173;-86
2023/04/09 07:01:30;;;;;;;126.53;57.75;;;;;;;;;;5117162;28;20164;-88
2023/04/09 07:03:56;;;;;;;128.52;56.85;;;;;;;;;;5118075;28;20472;-93
2023/04/09 07:06:21;;;;;;;128.77;55.47;;;;;;;;;;5117322;28;20031;-87
2023/04/09 07:08:47;;;;;;;130.25;57.58;;;;;;;;;;5116539;28;20028;-89
2023/04/09 07:11:12;;;;;;;128.95;56.17;;;;;;;;;;5118347;28;20040;-88
2023/04/09 07:13:38;;;;;;;129.00;56.72;;;;;;;;;;5124360;28;20058;-90
2023/04/09 07:16:04;;;;;;;127.18;56.88;;;;;;;;;;5078557;28;20032;-86
2023/04/09 07:18:29;;;;;;;124.72;56.22;;;;;;;;;;5079528;28;20864;-87
2023/04/09 07:20:55;;;;;;;122.10;55.42;;;;;;;;;;5095891;28;20129;-85
2023/04/09 07:23:21;;;;;;;126.53;57.20;;;;;;;;;;5095764;28;20088;-86
2023/04/09 07:25:47;;;;;;;125.32;56.42;;;;;;;;;;5089108;28;20046;-85
2023/04/09 07:28:12;;;;;;;119.55;55.00;;;;;;;;;;5117090;28;20039;-87
2023/04/09 07:30:38;;;;;;;126.43;54.67;;;;;;;;;;5103885;28;20046;-86
2023/04/09 07:33:04;;;;;;;128.05;55.90;;;;;;;;;;5111851;28;20025;-81
2023/04/09 07:35:30;;;;;;;117.90;54.47;;;;;;;;;;5109723;28;20055;-85
2023/04/09 07:37:57;;;;;;;119.40;53.10;;;;;;;;;;5117136;28;20063;-87
2023/04/09 07:40:23;;;;;;;116.75;53.42;;;;;;;;;;5116245;28;20035;-89
2023/04/09 07:42:49;;;;;;;117.28;52.58;;;;;;;;;;5098603;28;20058;-87
2023/04/09 07:45:15;;;;;;;116.78;53.78;;;;;;;;;;5101787;28;20028;-86
2023/04/09 07:47:41;;;;;;;118.85;55.88;;;;;;;;;;5097893;28;20019;-87
2023/04/09 07:50:07;;;;;;;122.20;53.58;;;;;;;;;;5115977;28;20028;-90
2023/04/09 07:52:33;;;;;;;120.78;55.38;;;;;;;;;;5116169;28;20035;-87
2023/04/09 07:54:58;;;;;;;127.72;54.20;;;;;;;;;;5112181;28;20091;-86
2023/04/09 07:57:23;;;;;;;113.38;52.20;;;;;;;;;;5120019;28;20028;-89
2023/04/09 07:59:49;;;;;;;109.88;51.17;;;;;;;;;;5097768;28;20369;-86
2023/04/09 08:02:15;;;;;;;113.85;50.55;;;;;;;;;;5115894;28;20124;-89
2023/04/09 08:04:40;;;;;;;120.18;51.13;;;;;;;;;;5117888;28;20024;-85
2023/04/09 08:07:06;;;;;;;120.85;51.70;;;;;;;;;;5097985;28;20070;-87
2023/04/09 08:09:32;;;;;;;119.97;53.90;;;;;;;;;;5097834;28;20019;-90
2023/04/09 08:11:57;;;;;;;121.13;55.58;;;;;;;;;;5115367;28;20032;-90
2023/04/09 08:14:23;;;;;;;124.20;59.20;;;;;;;;;;5123453;28;20015;-84
2023/04/09 08:16:49;;;;;;;125.68;55.75;;;;;;;;;;5098671;28;20039;-89
2023/04/09 08:19:16;;;;;;;120.07;52.78;;;;;;;;;;5078282;28;20071;-91
2023/04/09 08:21:42;;;;;;;125.07;53.05;;;;;;;;;;5087577;28;20058;-85
2023/04/09 08:24:10;;;;;;;125.18;54.92;;;;;;;;;;5103188;28;20052;-90
2023/04/09 08:26:35;;;;;;;122.70;53.83;;;;;;;;;;5083735;28;20124;-87
2023/04/09 08:29:01;;;;;;;125.65;55.60;;;;;;;;;;5064237;28;20068;-92
2023/04/09 08:31:26;;;;;;;128.70;53.35;;;;;;;;;;5075797;28;20060;-87
2023/04/09 08:33:52;;;;;;;126.10;52.40;;;;;;;;;;5075219;28;20044;-90
2023/04/09 08:36:18;;;;;;;131.10;56.67;;;;;;;;;;5070865;28;20027;-91
2023/04/09 08:38:45;;;;;;;119.95;53.72;;;;;;;;;;5061250;28;20028;-86
2023/04/09 08:41:19;;;;;;;130.38;55.50;;;;;;;;;;5074498;28;20032;-93
2023/04/09 08:43:48;;;;;;;123.40;54.63;;;;;;;;;;5056778;28;20043;-91
2023/04/09 08:46:15;;;;;;;129.43;54.08;;;;;;;;;;5076007;28;20131;-88
2023/04/09 08:48:42;;;;;;;125.25;51.83;;;;;;;;;;5075794;28;20020;-89
2023/04/09 08:51:11;;;;;;;120.50;52.58;;;;;;;;;;5074680;28;20120;-89
2023/04/09 08:53:37;;;;;;;131.60;57.88;;;;;;;;;;5057902;28;20040;-88
2023/04/09 08:56:03;;;;;;;131.32;56.63;;;;;;;;;;5061923;28;20061;-83
2023/04/09 08:58:29;;;;;;;129.52;53.80;;;;;;;;;;5088098;28;20037;-87
2023/04/09 09:00:54;;;;;;;130.00;54.92;;;;;;;;;;5076708;28;20097;-86
2023/04/09 09:03:20;;;;;;;125.57;54.47;;;;;;;;;;5059206;28;20075;-86
2023/04/09 09:05:45;;;;;;;132.88;55.78;;;;;;;;;;5027943;28;20020;-90
2023/04/09 09:08:13;;;;;;;129.75;55.72;;;;;;;;;;5056212;28;20024;-88
2023/04/09 09:10:44;;;;;;;126.88;54.08;;;;;;;;;;5056468;28;20024;-86
2023/04/09 09:13:30;;;;;;;133.27;56.33;;;;;;;;;;5074040;28;20033;-88
2023/04/09 09:16:12;;;;;;;136.30;56.08;;;;;;;;;;5074145;28;20048;-86
2023/04/09 09:18:39;;;;;;;132.63;54.70;;;;;;;;;;5112572;28;20493;-86
2023/04/09 09:21:11;;;;;;;131.48;56.10;;;;;;;;;;5078936;28;20384;-87
2023/04/09 09:23:37;;;;;;;128.88;56.13;;;;;;;;;;5114566;28;20188;-86
2023/04/09 09:26:12;;;;;;;137.23;57.40;;;;;;;;;;5114097;28;20084;-88
2023/04/09 09:28:37;;;;;;;135.15;57.50;;;;;;;;;;5095866;28;20030;-86
2023/04/09 09:31:10;;;;;;;134.20;55.53;;;;;;;;;;5114210;28;20027;-88
2023/04/09 09:33:35;;;;;;;132.88;54.42;;;;;;;;;;5114442;28;20028;-86
2023/04/09 09:36:02;;;;;;;131.45;54.55;;;;;;;;;;5115790;28;20397;-88
2023/04/09 09:38:28;;;;;;;133.98;56.13;;;;;;;;;;5110653;28;20031;-82
2023/04/09 09:40:53;;;;;;;133.10;55.33;;;;;;;;;;5123938;28;20043;-87
2023/04/09 09:43:19;;;;;;;121.65;54.20;;;;;;;;;;5099549;28;20031;-88
2023/04/09 09:45:45;;;;;;;128.73;56.88;;;;;;;;;;5100071;28;20031;-88
2023/04/09 09:48:11;;;;;;;142.13;58.10;;;;;;;;;;5117896;28;20059;-89
2023/04/09 09:50:38;;;;;;;161.40;61.85;;;;;;;;;;5117972;28;20073;-90
2023/04/09 09:53:05;;;;;;;147.57;58.88;;;;;;;;;;5099725;28;20023;-91
2023/04/09 09:55:31;;;;;;;144.75;60.55;;;;;;;;;;5118852;28;20330;-87
2023/04/09 09:57:59;;;;;;;134.18;57.25;;;;;;;;;;5082874;28;20497;-87
2023/04/09 10:00:25;;;;;;;135.10;56.35;;;;;;;;;;5117140;28;20139;-85
2023/04/09 10:02:58;;;;;;;151.82;58.75;;;;;;;;;;5104212;28;20123;-88
2023/04/09 10:05:26;;;;;;;139.13;57.42;;;;;;;;;;5082684;28;20345;-88
2023/04/09 10:07:56;;;;;;;135.18;57.35;;;;;;;;;;5082626;28;20035;-88
2023/04/09 10:10:22;;;;;;;137.98;56.80;;;;;;;;;;5099732;28;20023;-86
2023/04/09 10:12:47;;;;;;;127.05;55.55;;;;;;;;;;5099402;28;20038;-86
2023/04/09 10:15:13;;;;;;;136.23;56.30;;;;;;;;;;5103930;28;20024;-90
2023/04/09 10:17:38;;;;;;;147.25;58.10;;;;;;;;;;5099746;28;20100;-92
2023/04/09 10:20:10;;;;;;;123.75;53.22;;;;;;;;;;5104512;28;20550;-87
2023/04/09 10:22:36;;;;;;;133.40;54.38;;;;;;;;;;5084698;28;20046;-86
2023/04/09 10:25:03;;;;;;;131.95;54.78;;;;;;;;;;5086532;28;20414;-87
2023/04/09 10:27:28;;;;;;;130.63;54.92;;;;;;;;;;5099506;28;20436;-87
2023/04/09 10:29:54;;;;;;;126.93;52.20;;;;;;;;;;5100112;28;20135;-87
2023/04/09 10:32:21;;;;;;;129.05;54.00;;;;;;;;;;5098857;28;20028;-88
2023/04/09 10:34:48;;;;;;;137.80;56.58;;;;;;;;;;5103954;28;20023;-91
2023/04/09 10:37:15;;;;;;;133.40;57.00;;;;;;;;;;5116719;28;20368;-88
2023/04/09 10:39:46;;;;;;;133.75;56.28;;;;;;;;;;5098887;28;20088;-88
2023/04/09 10:42:17;;;;;;;;;;;;;;;;;;5101903;28;20023;-86
2023/04/09 10:44:45;;;;;;;128.65;53.03;;;;;;;;;;5121092;28;19916;-94
2023/04/09 10:47:11;;;;;;;124.57;52.60;;;;;;;;;;5098583;28;20024;-85
2023/04/09 10:49:40;;;;;;;140.65;61.20;;;;;;;;;;5116445;28;20042;-86
2023/04/09 10:52:10;;;;;;;129.35;53.63;;;;;;;;;;5082162;28;20442;-87
2023/04/09 10:54:42;;;;;;;128.38;52.80;;;;;;;;;;5116795;28;20063;-88
2023/04/09 10:57:15;;;;;;;127.85;55.05;;;;;;;;;;5083908;28;20048;-92
2023/04/09 10:59:51;;;;;;;132.93;54.40;;;;;;;;;;5082663;28;20035;-90
2023/04/09 11:02:38;;;;;;;132.80;55.75;;;;;;;;;;5125742;28;20019;-87
2023/04/09 11:05:28;;;;;;;130.60;56.80;;;;;;;;;;5131883;28;20042;-87
2023/04/09 11:08:05;;;;;;;140.48;59.28;;;;;;;;;;5116400;28;20085;-89
2023/04/09 11:10:31;;;;;;;134.15;57.85;;;;;;;;;;5116091;28;20024;-85
2023/04/09 11:12:57;;;;;;;134.85;55.83;;;;;;;;;;5116545;28;20020;-86
2023/04/09 11:15:22;;;;;;;131.38;57.25;;;;;;;;;;5116787;28;20084;-89
2023/04/09 11:17:48;;;;;;;127.03;52.67;;;;;;;;;;5116307;28;20514;-86
2023/04/09 11:20:15;;;;;;;127.03;53.53;;;;;;;;;;5124531;28;20028;-83
2023/04/09 11:22:40;;;;;;;122.20;52.15;;;;;;;;;;5111105;28;20047;-86
2023/04/09 11:25:06;;;;;;;120.45;51.90;;;;;;;;;;5115605;28;20376;-85
2023/04/09 11:27:38;;;;;;;126.55;52.78;;;;;;;;;;5115939;28;20031;-86
2023/04/09 11:30:05;;;;;;;130.93;54.95;;;;;;;;;;5098605;28;20066;-89
2023/04/09 11:32:30;;;;;;;117.25;49.60;;;;;;;;;;5115490;28;20503;-85
2023/04/09 11:34:56;;;;;;;114.05;49.05;;;;;;;;;;5117542;28;20027;-89
2023/04/09 11:37:22;;;;;;;118.10;50.60;;;;;;;;;;5117311;28;20035;-87
2023/04/09 11:39:50;;;;;;;111.05;49.13;;;;;;;;;;5097506;28;20011;-91
2023/04/09 11:42:15;;;;;;;111.22;48.80;;;;;;;;;;5124394;28;20042;-87
2023/04/09 11:44:43;;;;;;;111.80;49.08;;;;;;;;;;5118853;28;20106;-91
2023/04/09 11:47:09;;;;;;;117.68;54.72;;;;;;;;;;5100592;28;20445;-90
2023/04/09 11:49:34;;;;;;;111.63;49.20;;;;;;;;;;5105620;28;20031;-85
2023/04/09 11:52:00;;;;;;;121.47;52.53;;;;;;;;;;5103343;28;20023;-86
2023/04/09 11:54:32;;;;;;;113.35;50.17;;;;;;;;;;5091491;28;20027;-88
2023/04/09 11:57:16;;;;;;;116.65;51.08;;;;;;;;;;5106885;28;20039;-90
2023/04/09 11:59:41;;;;;;;113.47;50.80;;;;;;;;;;5105450;28;20422;-89
2023/04/09 12:02:07;;;;;;;112.30;50.83;;;;;;;;;;5099293;28;20027;-85
2023/04/09 12:04:33;;;;;;;125.38;52.95;;;;;;;;;;5127839;28;20019;-83
2023/04/09 12:06:58;;;;;;;128.55;55.97;;;;;;;;;;5100815;28;20055;-87
2023/04/09 12:09:24;;;;;;;111.82;51.15;;;;;;;;;;5097757;28;20031;-87
2023/04/09 12:11:49;;;;;;;110.00;50.80;;;;;;;;;;5097572;28;20028;-88
2023/04/09 12:14:16;;;;;;;118.03;52.20;;;;;;;;;;5063125;28;20035;-88
2023/04/09 12:16:43;;;;;;;129.25;53.63;;;;;;;;;;5080745;28;20034;-87
2023/04/09 12:19:10;;;;;;;123.63;53.67;;;;;;;;;;5119583;28;20346;-90
2023/04/09 12:21:49;;;;;;;118.68;51.08;;;;;;;;;;5099339;28;20039;-87
2023/04/09 12:24:16;;;;;;;130.70;56.23;;;;;;;;;;5134069;28;20031;-87
2023/04/09 12:26:42;;;;;;;125.47;52.58;;;;;;;;;;5076407;28;20096;-88
2023/04/09 12:29:07;;;;;;;118.55;52.20;;;;;;;;;;5096957;28;20039;-87
2023/04/09 12:31:33;;;;;;;124.03;52.95;;;;;;;;;;5120291;28;20364;-88
2023/04/09 12:33:58;;;;;;;122.45;52.72;;;;;;;;;;5116390;28;20020;-87
2023/04/09 12:36:24;;;;;;;136.70;58.65;;;;;;;;;;5115212;28;20034;-87
2023/04/09 12:38:49;;;;;;;155.50;59.67;;;;;;;;;;5115314;28;20085;-87
2023/04/09 12:41:15;;;;;;;157.63;57.72;;;;;;;;;;5080374;28;20043;-88
2023/04/09 12:43:43;;;;;;;140.30;55.33;;;;;;;;;;5097389;28;20130;-88
2023/04/09 12:46:09;;;;;;;119.97;53.25;;;;;;;;;;5112305;28;20132;-87
2023/04/09 12:48:34;;;;;;;110.95;49.35;;;;;;;;;;5106401;28;20043;-84
2023/04/09 12:51:00;;;;;;;111.10;46.00;;;;;;;;;;5110520;28;20046;-86
2023/04/09 12:53:26;;;;;;;116.57;48.47;;;;;;;;;;5100843;28;20062;-86
2023/04/09 12:55:51;;;;;;;114.68;48.13;;;;;;;;;;5115148;28;20039;-85
2023/04/09 12:58:17;;;;;;;114.88;48.63;;;;;;;;;;5096103;28;20453;-87
2023/04/09 13:00:42;;;;;;;117.32;49.72;;;;;;;;;;5115449;28;20376;-86
2023/04/09 13:03:08;;;;;;;119.25;49.75;;;;;;;;;;5077006;28;20337;-87
2023/04/09 13:05:34;;;;;;;106.18;48.13;;;;;;;;;;5100991;28;20127;-84
2023/04/09 13:08:02;;;;;;;122.20;52.42;;;;;;;;;;5099373;28;20454;-87
2023/04/09 13:10:29;;;;;;;167.68;66.80;;;;;;;;;;5095809;28;20043;-87
2023/04/09 13:12:55;;;;;;;126.50;52.15;;;;;;;;;;5100342;28;20024;-86
2023/04/09 13:15:20;;;;;;;124.15;55.20;;;;;;;;;;5100664;28;20464;-86
2023/04/09 13:17:46;;;;;;;120.22;52.80;;;;;;;;;;5100306;28;20388;-87
2023/04/09 13:20:12;;;;;;;137.93;61.25;;;;;;;;;;5082323;28;20437;-87
2023/04/09 13:22:37;;;;;;;119.82;52.15;;;;;;;;;;5100695;28;20396;-86
2023/04/09 13:25:03;;;;;;;115.68;50.10;;;;;;;;;;5082745;28;20035;-87
2023/04/09 13:27:28;;;;;;;116.20;50.78;;;;;;;;;;5111947;28;20445;-87
2023/04/09 13:29:54;;;;;;;125.72;54.33;;;;;;;;;;5066335;28;20040;-86
2023/04/09 13:32:22;;;;;;;115.95;49.58;;;;;;;;;;5101424;28;20020;-87
2023/04/09 13:34:48;;;;;;;101.22;45.47;;;;;;;;;;5066170;28;20111;-86
2023/04/09 13:37:13;;;;;;;106.88;45.00;;;;;;;;;;5082147;28;20024;-86
2023/04/09 13:39:39;;;;;;;106.60;46.38;;;;;;;;;;5082542;28;20020;-87
2023/04/09 13:42:04;;;;;;;120.07;51.72;;;;;;;;;;5099785;28;20398;-86
2023/04/09 13:44:30;;;;;;;116.53;49.97;;;;;;;;;;5065869;28;20023;-87
2023/04/09 13:46:55;;;;;;;122.47;48.55;;;;;;;;;;5102904;28;20028;-83
2023/04/09 13:49:21;;;;;;;113.40;47.75;;;;;;;;;;5111046;28;20060;-89
2023/04/09 13:51:47;;;;;;;106.13;42.63;;;;;;;;;;5100669;28;20346;-87
2023/04/09 13:54:13;;;;;;;105.53;43.53;;;;;;;;;;5065415;28;20055;-88
2023/04/09 13:56:38;;;;;;;107.15;43.28;;;;;;;;;;5100498;28;20067;-87
2023/04/09 13:59:04;;;;;;;98.80;42.38;;;;;;;;;;5065581;28;20028;-87
2023/04/09 14:01:29;;;;;;;110.47;44.70;;;;;;;;;;5082292;28;20081;-86
2023/04/09 14:03:55;;;;;;;93.95;39.42;;;;;;;;;;5065803;28;20122;-86
2023/04/09 14:06:21;;;;;;;101.00;42.67;;;;;;;;;;5048696;28;20119;-87